Airfield :
LOGIN :

Register | Disclaimer

   EN    FR    IT 

 










Legend :    VFR   Marginal VFR   IFR   Intensive IFR   Very Intensive IFR
Visi :
Ceiling :
>= 8 km
>= 3000ft
5 to 8 km
1000 to 3000 ft
1500m to 5 km
500 to 1000 ft
800 to 1500m
200 to 500 ft
< 800m
< 200 ft
Symbols :   Thunderstorms  Fog  Heavy snow  Heavy precipitations  Wind > 20 kt
SIGMETs :     Misc.  Thunderstorms  Icing  Turbulence  Mountain Waves  Volcanic Ashes







- Airport Elevation : 580 ft
- Download approach charts


LFOA - Avord

CURRENT METAR :
  • 180730Z AUTO 24020KT 9999 OVC013 09/07 Q1013 TEMPO 24025G40KT 4000 RADZ BKN006 BKN011

EXPIRED METARs :
  • 180700Z AUTO 23021KT 9999 OVC013 08/07 Q1013 TEMPO 24025G40KT 4000 RADZ BKN006 BKN011
  • 180630Z AUTO 24022KT 9999 OVC012 08/07 Q1013 TEMPO 24025G40KT 4000 RADZ BKN006 BKN011
  • 180600Z AUTO 24022G33KT 6000 -RADZ OVC010 08/07 Q1013
  • 180530Z AUTO 24019KT 8000 OVC011 08/06 Q1014
  • 180500Z AUTO 24019KT 9000 OVC012 07/06 Q1014

TAF AMD TAF LFOA
Valid from the 18 at 05:00 until the 19 at 03:00 UTC


180550Z 1805/1903 24015KT 9999 BKN015
TEMPO 1805/1823 24025G35KT 4000 RADZ BKN006 BKN011
PROB40
TEMPO 1805/1811 24025G40KT
PROB40
TEMPO 1820/1822 28025G40KT 3000 RA BKN008 BKN020TCU
TEMPO 1823/1902 27015G25KT 4000 SHRA BKN012 BKN015TCU
No reported NOTAMs for that airfield.
3 SIGMETs reported for the Paris FIR (LFFF) :
 
Severe turbulence
LFFF SIGMET 4 VALID 180600/180900 LFPW
LFFF PARIS FIR/UIR SEV TURB FCST NW OF LINE N4745 E00445 - N4715 W00015 SFC/FL060 STNR NC=
SIGMET 2  cancelation
LFFF SIGMET 3 VALID 180445/180900 LFPW
LFFF PARIS FIR/UIR CNL SIGMET 2 180500/180900=
SIGMET 2  CANCELED :
Severe turbulence
LFFF SIGMET 2 VALID 180500/180900 LFPW
LFFF PARIS FIR/UIR SEV TURB FCST WI N5000 E00500 - N4930 E00600 - N4900 E00445 - N4830 E00530 - N4730 E00415 - N4700 E00430 - N4700 E00400 - N5000 E00500 SFC/FL060 STNR INTSF=



MET'MAP, your aeronautical weather chart ! - Copyright ORBIFLY December 2007 - Disclaimer

ORBIFLY MET'MAP TEAM :

Programming & Development : Alexandra Zaïnal
Concept & Development : Baudouin d'Aumeries
Co-Development & Prog : Marc-Olivier Méhu
Technical & hardware support : Manuel Goepfert

Contact : metmap@orbifly.com




SOURCES & CREDITS :

   NOAA